• Join FlightAware (Why Join?)
  • Login
  • US Flag 
Rudolph Flight #1: Arrived! 
11:57AM EST


 

Airport Tracker/Info


-or-


 

Live Flight TrackerFlight Track Log ✈ CSZ9916 ✈ 17-Jul-2013 ✈ ZUCK / CKG - ZGSZ / SZX

Flight Track Log - Related Links

Times and Time Zones

All times are in EDT time to prevent confusion due to time zone crossing. See the CSZ9916 flight status page for this flight to view local times or setup timezone preferences in your user account.

Time Position Orientation Groundspeed Altitude Reporting Facility
EDT Latitude Longitude Course Direction KTS MPH feet Rate Location/Type
12:01PM 29.1885 107.2250 136° Southeast  Level Estimated
12:02PM 29.1125 107.3080 136° Southeast  Level Estimated
12:03PM 29.0364 107.3908 136° Southeast  Level Estimated
12:04PM 28.9603 107.4734 136° Southeast  Level Estimated
12:05PM 28.8841 107.5560 136° Southeast  Level Estimated
12:06PM 28.8078 107.6385 137° Southeast  Level Estimated
12:07PM 28.7315 107.7208 137° Southeast  Level Estimated
12:08PM 28.6552 107.8030 137° Southeast  Level Estimated
12:09PM 28.5788 107.8851 137° Southeast  Level Estimated
12:10PM 28.5023 107.9671 137° Southeast  Level Estimated
12:11PM 28.4258 108.0489 137° Southeast  Level Estimated
12:12PM 28.3493 108.1307 137° Southeast  Level Estimated
12:13PM 28.2727 108.2123 137° Southeast  Level Estimated
12:14PM 28.1961 108.2937 137° Southeast  Level Estimated
12:15PM 28.1194 108.3751 137° Southeast  Level Estimated
12:16PM 28.0427 108.4564 137° Southeast  Level Estimated
12:17PM 27.9659 108.5375 137° Southeast  Level Estimated
12:18PM 27.8890 108.6186 137° Southeast  Level Estimated
12:19PM 27.8122 108.6995 137° Southeast  Level Estimated
12:20PM 27.7352 108.7803 137° Southeast  Level Estimated
12:21PM 27.6583 108.8610 137° Southeast  Level Estimated
12:22PM 27.5812 108.9415 137° Southeast  Level Estimated
12:23PM 27.5042 109.0220 137° Southeast  Level Estimated
12:24PM 27.4271 109.1023 137° Southeast  Level Estimated
12:25PM 27.3499 109.1826 137° Southeast  Level Estimated
12:26PM 27.2727 109.2627 137° Southeast  Level Estimated
12:27PM 27.1955 109.3427 137° Southeast  Level Estimated
12:28PM 27.1182 109.4226 137° Southeast  Level Estimated
12:29PM 27.0408 109.5024 137° Southeast  Level Estimated
12:30PM 26.9635 109.5821 137° Southeast  Level Estimated
12:31PM 26.8860 109.6617 137° Southeast  Level Estimated
12:32PM 26.8086 109.7411 138° Southeast  Level Estimated
12:33PM 26.7310 109.8205 138° Southeast  Level Estimated
12:34PM 26.6535 109.8997 138° Southeast  Level Estimated
12:35PM 26.5759 109.9789 138° Southeast  Level Estimated
12:36PM 26.4982 110.0579 138° Southeast  Level Estimated
12:37PM 26.4205 110.1368 138° Southeast  Level Estimated
12:38PM 26.3428 110.2156 138° Southeast  Level Estimated
12:39PM 26.2650 110.2943 138° Southeast  Level Estimated
12:40PM 26.1872 110.3729 138° Southeast  Level Estimated
12:41PM 26.1093 110.4514 138° Southeast  Level Estimated
12:42PM 26.0314 110.5298 138° Southeast  Level Estimated
12:43PM 25.9535 110.6081 138° Southeast  Level Estimated
12:44PM 25.8755 110.6863 138° Southeast  Level Estimated
12:45PM 25.7974 110.7644 138° Southeast  Level Estimated
12:46PM 25.7194 110.8424 138° Southeast  Level Estimated
12:47PM 25.6413 110.9203 138° Southeast  Level Estimated
12:48PM 25.5631 110.9980 138° Southeast  Level Estimated
12:49PM 25.4849 111.0757 138° Southeast  Level Estimated
12:50PM 25.4067 111.1533 138° Southeast  Level Estimated
12:51PM 25.3284 111.2308 138° Southeast  Level Estimated
12:52PM 25.2501 111.3082 138° Southeast  Level Estimated
12:53PM 25.1717 111.3855 138° Southeast  Level Estimated
12:54PM 25.0933 111.4626 138° Southeast  Level Estimated
12:55PM 25.0149 111.5397 138° Southeast  Level Estimated
12:56PM 24.9364 111.6167 138° Southeast  Level Estimated
12:57PM 24.8579 111.6936 138° Southeast  Level Estimated
12:58PM 24.7793 111.7703 138° Southeast  Level Estimated
12:59PM 24.7007 111.8470 138° Southeast  Level Estimated
01:00PM 24.6221 111.9236 138° Southeast  Level Estimated
01:01PM 24.5434 112.0001 139° Southeast  Level Estimated
01:02PM 24.4647 112.0765 139° Southeast  Level Estimated
01:03PM 24.3859 112.1528 139° Southeast  Level Estimated
01:04PM 24.3071 112.2290 139° Southeast  Level Estimated
01:05PM 24.2283 112.3051 139° Southeast  Level Estimated
01:06PM 24.1494 112.3812 139° Southeast  Level Estimated
01:07PM 24.0705 112.4571 139° Southeast  Level Estimated
01:08PM 23.9916 112.5329 139° Southeast  Level Estimated
01:09PM 23.9126 112.6087 139° Southeast  Level Estimated
01:10PM 23.8336 112.6843 139° Southeast  Level Estimated
01:11PM 23.7545 112.7598 139° Southeast  Level Estimated
01:12PM 23.6754 112.8353 139° Southeast  Level Estimated
01:13PM 23.5963 112.9107 139° Southeast  Level Estimated
01:14PM 23.5172 112.9860 139° Southeast  Level Estimated
01:15PM 23.4380 113.0611 139° Southeast  Level Estimated
01:16PM 23.3587 113.1363 139° Southeast  Level Estimated
01:17PM 23.2795 113.2113 139° Southeast  Level Estimated
01:18PM 23.2001 113.2862 139° Southeast  Level Estimated
01:19PM 23.1208 113.3610 139° Southeast  Level Estimated
01:20PM 23.0414 113.4358 139° Southeast  Level Estimated
01:21PM 22.9620 113.5104 139° Southeast  Level Estimated
01:22PM 22.8826 113.5850 139° Southeast  Level Estimated
01:23PM 22.8031 113.6595 139° Southeast  Level Estimated
01:24PM 22.7236 113.7338 139° Southeast  Level Estimated
01:25PM 22.6440 113.8082 139° Southeast  Level Estimated
01:26PM 22.6395 113.8124 139° Southeast  Level Estimated
01:27PM 22.6395 113.8124 25° Northeast  Level Estimated
01:28PM 22.6395 113.8124 25° Northeast  Level Estimated
01:29PM 22.6395 113.8124 25° Northeast  Level Estimated
01:30PM 22.6395 113.8124 25° Northeast  Level Estimated
01:31PM 22.6395 113.8124 25° Northeast  Level Estimated
01:32PM 22.6395 113.8124 25° Northeast  Level Estimated
01:33PM 22.6395 113.8124 25° Northeast  Level Estimated
01:34PM 22.6395 113.8124 25° Northeast  Level Estimated
01:35PM 22.6395 113.8124 25° Northeast  Level Estimated
01:36PM 22.6395 113.8124 25° Northeast  Level Estimated
01:37PM 22.6395 113.8124 25° Northeast  Level Estimated
01:38PM 22.6395 113.8124 25° Northeast  Level Estimated
01:39PM 22.6395 113.8124 25° Northeast  Level Estimated
01:40PM 22.6395 113.8124 25° Northeast  Level Estimated
01:41PM 22.6395 113.8124 25° Northeast  Level Estimated